createdAt,value
2017-07-28T00:01:50.644Z,4.60
2017-07-28T00:04:18.095Z,5.13
2017-07-28T00:06:45.564Z,4.90
2017-07-28T00:09:13.009Z,3.73
2017-07-28T00:11:40.477Z,4.20
2017-07-28T00:14:07.961Z,4.10
2017-07-28T00:16:35.405Z,4.30
2017-07-28T00:19:02.849Z,5.90
2017-07-28T00:21:30.322Z,4.97
2017-07-28T00:23:57.762Z,5.40
2017-07-28T00:26:25.543Z,3.40
2017-07-28T00:28:52.984Z,4.90
2017-07-28T00:31:20.720Z,3.83
2017-07-28T00:33:48.185Z,4.07
2017-07-28T00:36:15.635Z,5.80
2017-07-28T00:38:43.081Z,4.13
2017-07-28T00:41:10.546Z,5.23
2017-07-28T00:43:37.995Z,4.57
2017-07-28T00:46:05.445Z,5.67
2017-07-28T00:48:33.306Z,6.10
2017-07-28T00:51:00.776Z,4.07
2017-07-28T00:53:28.213Z,4.73
2017-07-28T00:55:55.685Z,5.37
2017-07-28T00:58:23.134Z,6.57
2017-07-28T01:00:50.604Z,5.83
2017-07-28T01:03:18.046Z,7.70
2017-07-28T01:05:45.494Z,4.97
2017-07-28T01:08:12.953Z,5.23
2017-07-28T01:10:40.395Z,6.60
2017-07-28T01:13:08.191Z,11.50
2017-07-28T01:15:35.636Z,9.63
2017-07-28T01:18:03.076Z,8.60
2017-07-28T01:20:30.547Z,5.07
2017-07-28T01:22:58.017Z,5.53
2017-07-28T01:25:25.463Z,7.47
2017-07-28T01:27:52.938Z,7.27
2017-07-28T01:30:20.383Z,6.37
2017-07-28T01:32:47.831Z,6.93
2017-07-28T01:35:15.296Z,5.37
2017-07-28T01:37:42.746Z,5.40
2017-07-28T01:40:10.221Z,6.80
2017-07-28T01:42:37.673Z,5.83
2017-07-28T01:45:05.141Z,6.87
2017-07-28T01:47:32.592Z,10.93
2017-07-28T01:50:00.036Z,9.27
2017-07-28T01:52:27.692Z,6.37
2017-07-28T01:54:55.347Z,10.27
2017-07-28T01:57:22.781Z,9.77
2017-07-28T01:59:50.228Z,6.40
2017-07-28T02:02:17.717Z,7.53
2017-07-28T02:04:45.161Z,6.47
2017-07-28T02:07:12.609Z,5.70
2017-07-28T02:09:40.073Z,6.20
2017-07-28T02:12:07.601Z,6.80
2017-07-28T02:14:35.077Z,11.50
2017-07-28T02:17:02.854Z,6.87
2017-07-28T02:19:30.337Z,7.13
2017-07-28T02:21:57.790Z,9.93
2017-07-28T02:24:25.238Z,8.13
2017-07-28T02:26:52.705Z,7.70
2017-07-28T02:29:20.165Z,7.27
2017-07-28T02:31:47.640Z,9.77
2017-07-28T02:34:15.081Z,6.80
2017-07-28T02:36:42.529Z,9.40
2017-07-28T02:39:10.001Z,6.73
2017-07-28T02:41:37.457Z,9.47
2017-07-28T02:44:05.145Z,12.40
2017-07-28T02:46:32.590Z,8.00
2017-07-28T02:49:00.041Z,21.40
2017-07-28T02:51:27.510Z,12.80
2017-07-28T02:53:54.963Z,10.20
2017-07-28T02:56:22.431Z,8.70
2017-07-28T02:58:49.884Z,6.60
2017-07-28T03:01:17.469Z,16.13
2017-07-28T03:03:44.904Z,8.57
2017-07-28T03:06:12.352Z,15.30
2017-07-28T03:08:39.825Z,8.30
2017-07-28T03:11:07.293Z,11.53
2017-07-28T03:13:34.741Z,12.37
2017-07-28T03:16:02.208Z,8.30
2017-07-28T03:18:29.641Z,8.83
2017-07-28T03:20:57.105Z,7.80
2017-07-28T03:23:24.719Z,11.87
2017-07-28T03:25:52.169Z,8.17
2017-07-28T03:28:19.621Z,8.20
2017-07-28T03:30:47.091Z,9.17
2017-07-28T03:33:14.633Z,7.30
2017-07-28T03:35:42.080Z,8.00
2017-07-28T03:38:09.549Z,7.67
2017-07-28T03:40:36.992Z,8.73
2017-07-28T03:43:04.437Z,9.20
2017-07-28T03:45:31.914Z,8.43
2017-07-28T03:47:59.368Z,6.90
2017-07-28T03:50:26.829Z,9.53
2017-07-28T03:52:54.296Z,8.27
2017-07-28T03:55:21.737Z,6.47
2017-07-28T03:57:49.200Z,7.30
2017-07-28T04:00:16.661Z,9.10
2017-07-28T04:02:44.134Z,12.40
2017-07-28T04:05:11.584Z,7.97
2017-07-28T04:07:39.071Z,10.90
2017-07-28T04:10:06.514Z,9.80
2017-07-28T04:12:33.964Z,10.07
2017-07-28T04:15:01.765Z,8.43
2017-07-28T04:17:29.209Z,8.40
2017-07-28T04:19:56.654Z,9.03
2017-07-28T04:22:24.143Z,7.90
2017-07-28T04:24:51.587Z,8.20
2017-07-28T04:27:19.054Z,6.47
2017-07-28T04:29:46.504Z,6.10
2017-07-28T04:32:13.973Z,7.50
2017-07-28T04:34:41.421Z,13.17
2017-07-28T04:37:08.866Z,7.70
2017-07-28T04:39:36.346Z,9.67
2017-07-28T04:42:03.795Z,9.80
2017-07-28T04:44:31.257Z,9.87
2017-07-28T04:46:58.723Z,7.33
2017-07-28T04:49:26.192Z,7.30
2017-07-28T04:51:53.636Z,7.17
2017-07-28T04:54:21.084Z,10.10
2017-07-28T04:56:48.550Z,7.20
2017-07-28T04:59:16.013Z,7.17
2017-07-28T05:01:43.465Z,6.57
2017-07-28T05:04:10.930Z,7.13
2017-07-28T05:06:38.381Z,7.97
2017-07-28T05:09:05.850Z,15.57
2017-07-28T05:11:33.303Z,6.40
2017-07-28T05:14:00.784Z,5.60
2017-07-28T05:16:28.236Z,5.47
2017-07-28T05:18:55.681Z,9.43
2017-07-28T05:21:23.150Z,8.17
2017-07-28T05:23:50.595Z,5.30
2017-07-28T05:26:18.033Z,7.07
2017-07-28T05:28:45.518Z,5.20
2017-07-28T05:31:12.970Z,5.60
2017-07-28T05:33:40.420Z,6.23
2017-07-28T05:36:07.902Z,4.93
2017-07-28T05:38:35.345Z,8.40
2017-07-28T05:41:02.792Z,6.60
2017-07-28T05:43:30.265Z,4.00
2017-07-28T05:45:57.716Z,4.13
2017-07-28T05:48:25.329Z,3.33
2017-07-28T05:50:52.788Z,3.70
2017-07-28T05:53:20.230Z,6.83
2017-07-28T05:55:47.700Z,4.17
2017-07-28T05:58:15.146Z,3.27
2017-07-28T06:00:42.621Z,3.00
2017-07-28T06:03:10.092Z,2.73
2017-07-28T06:05:37.556Z,3.30
2017-07-28T06:08:05.033Z,3.07
2017-07-28T06:10:32.476Z,3.50
2017-07-28T06:12:59.921Z,3.50
2017-07-28T06:15:27.393Z,3.20
2017-07-28T06:17:54.841Z,2.87
2017-07-28T06:20:22.308Z,2.63
2017-07-28T06:22:49.744Z,2.13
2017-07-28T06:25:17.215Z,2.73
2017-07-28T06:27:44.683Z,3.30
2017-07-28T06:30:12.127Z,2.10
2017-07-28T06:32:39.591Z,2.50
2017-07-28T06:35:07.298Z,2.10
2017-07-28T06:37:34.747Z,2.80
2017-07-28T06:40:02.192Z,3.00
2017-07-28T06:42:29.657Z,1.83
2017-07-28T06:44:57.095Z,1.57
2017-07-28T06:47:24.538Z,1.77
2017-07-28T06:49:52.009Z,4.90
2017-07-28T06:52:19.448Z,2.10
2017-07-28T06:54:46.923Z,1.73
2017-07-28T06:57:14.759Z,2.20
2017-07-28T06:59:42.200Z,2.40
2017-07-28T07:02:09.649Z,1.60
2017-07-28T07:07:13.776Z,1.53
2017-07-28T07:09:41.245Z,1.93
2017-07-28T07:12:08.696Z,2.03
2017-07-28T07:14:36.267Z,1.30
2017-07-28T07:17:03.945Z,1.57
2017-07-28T07:19:31.392Z,1.33
2017-07-28T07:21:58.848Z,1.87
2017-07-28T07:24:26.324Z,2.43
2017-07-28T07:26:53.772Z,1.77
2017-07-28T07:29:21.224Z,1.40
2017-07-28T07:31:48.694Z,3.10
2017-07-28T07:34:16.144Z,1.87
2017-07-28T07:36:43.613Z,2.50
2017-07-28T07:39:11.057Z,1.37
2017-07-28T07:41:38.849Z,2.00
2017-07-28T07:44:06.289Z,1.17
2017-07-28T07:46:33.734Z,1.50
2017-07-28T07:49:01.224Z,1.90
2017-07-28T07:51:28.661Z,1.60
2017-07-28T07:53:56.106Z,1.43
2017-07-28T07:56:23.582Z,1.63
2017-07-28T07:58:51.025Z,1.90
2017-07-28T08:01:18.489Z,0.97
2017-07-28T08:03:45.952Z,1.47
2017-07-28T08:06:13.403Z,1.60
2017-07-28T08:08:40.868Z,3.50
2017-07-28T08:11:08.318Z,2.10
2017-07-28T08:13:35.793Z,1.70
2017-07-28T08:16:03.232Z,1.33
2017-07-28T08:18:30.711Z,3.07
2017-07-28T08:20:58.160Z,1.60
2017-07-28T08:23:25.605Z,1.50
2017-07-28T08:25:53.076Z,1.83
2017-07-28T08:28:20.561Z,1.43
2017-07-28T08:30:48.001Z,1.67
2017-07-28T08:33:15.446Z,1.70
2017-07-28T08:35:42.916Z,1.77
2017-07-28T08:38:10.376Z,1.57
2017-07-28T08:40:37.845Z,2.87
2017-07-28T08:43:05.324Z,1.80
2017-07-28T08:45:32.894Z,1.80
2017-07-28T08:48:00.342Z,1.33
2017-07-28T08:50:27.787Z,1.33
2017-07-28T08:52:55.253Z,3.17
2017-07-28T08:55:22.700Z,2.90
2017-07-28T08:57:50.161Z,2.07
2017-07-28T09:00:17.613Z,1.70
2017-07-28T09:02:45.078Z,2.10
2017-07-28T09:05:12.558Z,1.93
2017-07-28T09:07:40.032Z,2.90
2017-07-28T09:10:07.482Z,1.57
2017-07-28T09:12:34.978Z,2.40
2017-07-28T09:15:02.439Z,1.70
2017-07-28T09:17:29.906Z,1.20
2017-07-28T09:19:57.374Z,2.10
2017-07-28T09:22:24.836Z,1.90
2017-07-28T09:24:52.338Z,1.47
2017-07-28T09:27:19.787Z,4.03
2017-07-28T09:29:47.250Z,2.07
2017-07-28T09:32:14.698Z,1.40
2017-07-28T09:34:42.313Z,1.50
2017-07-28T09:37:09.788Z,1.60
2017-07-28T09:39:37.232Z,1.40
2017-07-28T09:42:04.704Z,1.30
2017-07-28T09:44:32.146Z,2.13
2017-07-28T09:46:59.620Z,2.67
2017-07-28T09:49:27.133Z,6.00
2017-07-28T09:51:54.587Z,3.03
2017-07-28T09:54:22.049Z,1.73
2017-07-28T09:56:49.515Z,1.80
2017-07-28T09:59:17.186Z,1.80
2017-07-28T10:01:44.633Z,1.67
2017-07-28T10:04:12.098Z,1.53
2017-07-28T10:06:39.573Z,1.70
2017-07-28T10:09:07.026Z,1.50
2017-07-28T10:11:34.506Z,1.60
2017-07-28T10:14:01.974Z,2.30
2017-07-28T10:16:29.421Z,1.80
2017-07-28T10:18:56.883Z,2.30
2017-07-28T10:21:24.385Z,2.17
2017-07-28T10:23:51.840Z,2.43
2017-07-28T10:26:19.324Z,2.00
2017-07-28T10:28:46.770Z,1.37
2017-07-28T10:31:14.209Z,1.40
2017-07-28T10:33:41.686Z,3.00
2017-07-28T10:36:09.153Z,1.80
2017-07-28T10:38:36.607Z,1.50
2017-07-28T10:41:04.362Z,1.50
2017-07-28T10:43:31.853Z,2.20
2017-07-28T10:45:59.298Z,5.90
2017-07-28T10:48:26.760Z,1.43
2017-07-28T10:50:54.231Z,1.10
2017-07-28T10:53:21.721Z,1.33
2017-07-28T10:55:49.180Z,1.50
2017-07-28T10:58:16.643Z,2.00
2017-07-28T11:00:44.081Z,2.83
2017-07-28T11:03:11.545Z,1.67
2017-07-28T11:05:38.993Z,1.37
2017-07-28T11:08:06.485Z,1.70
2017-07-28T11:10:33.926Z,1.90
2017-07-28T11:13:01.404Z,1.53
2017-07-28T11:15:28.848Z,3.07
2017-07-28T11:17:56.298Z,2.30
2017-07-28T11:20:23.774Z,1.60
2017-07-28T11:22:51.217Z,1.97
2017-07-28T11:25:18.681Z,1.47
2017-07-28T11:27:46.133Z,1.27
2017-07-28T11:30:13.593Z,2.10
2017-07-28T11:32:41.060Z,1.30
2017-07-28T11:35:08.518Z,1.13
2017-07-28T11:37:35.981Z,1.53
2017-07-28T11:40:03.449Z,1.30
2017-07-28T11:42:30.925Z,4.13
2017-07-28T11:44:58.384Z,2.03
2017-07-28T11:47:25.864Z,2.00
2017-07-28T11:49:53.329Z,3.07
2017-07-28T11:52:20.798Z,1.97
2017-07-28T11:54:48.249Z,1.70
2017-07-28T11:57:15.711Z,1.47
2017-07-28T11:59:43.185Z,2.13
2017-07-28T12:02:10.648Z,1.50
2017-07-28T12:04:38.114Z,1.87
2017-07-28T12:07:05.597Z,1.63
2017-07-28T12:09:33.047Z,2.30
2017-07-28T12:12:00.765Z,1.37
2017-07-28T12:14:28.208Z,1.80
2017-07-28T12:16:55.649Z,1.77
2017-07-28T12:19:23.133Z,1.70
2017-07-28T12:21:50.597Z,1.97
2017-07-28T12:24:18.048Z,1.97
2017-07-28T12:26:45.509Z,1.77
2017-07-28T12:29:12.956Z,1.77
2017-07-28T12:31:40.429Z,1.60
2017-07-28T12:34:07.877Z,1.77
2017-07-28T12:36:35.344Z,3.10
2017-07-28T12:39:02.823Z,2.00
2017-07-28T12:41:30.265Z,2.13
2017-07-28T12:43:57.732Z,1.40
2017-07-28T12:46:25.192Z,1.20
2017-07-28T12:48:52.648Z,1.50
2017-07-28T12:51:20.118Z,2.50
2017-07-28T12:53:47.584Z,1.40
2017-07-28T12:56:15.057Z,2.17
2017-07-28T12:58:42.507Z,1.83
2017-07-28T13:01:10.164Z,3.07
2017-07-28T13:03:37.618Z,1.37
2017-07-28T13:06:06.309Z,2.37
2017-07-28T13:08:33.782Z,1.80
2017-07-28T13:11:01.224Z,3.10
2017-07-28T13:13:28.749Z,1.33
2017-07-28T13:15:56.193Z,6.87
2017-07-28T13:18:23.672Z,2.23
2017-07-28T13:20:51.121Z,12.50
2017-07-28T13:23:18.598Z,2.27
2017-07-28T13:25:46.078Z,1.50
2017-07-28T13:28:13.539Z,14.33
2017-07-28T13:30:41.032Z,2.53
2017-07-28T13:33:08.478Z,1.70
2017-07-28T13:35:35.997Z,2.00
2017-07-28T13:38:03.461Z,3.43
2017-07-28T13:40:30.956Z,1.70
2017-07-28T13:42:58.397Z,3.77
2017-07-28T13:45:25.841Z,2.30
2017-07-28T13:47:53.311Z,2.07
2017-07-28T13:50:20.758Z,1.97
2017-07-28T13:52:48.235Z,3.40
2017-07-28T13:55:15.677Z,5.00
2017-07-28T13:57:43.149Z,2.30
2017-07-28T14:00:10.596Z,4.67
2017-07-28T14:02:38.057Z,5.00
2017-07-28T14:05:06.298Z,4.13
2017-07-28T14:07:34.925Z,2.03
2017-07-28T14:10:02.524Z,3.33
2017-07-28T14:12:29.969Z,6.00
2017-07-28T14:14:57.652Z,5.43
2017-07-28T14:17:25.856Z,3.27
2017-07-28T14:19:53.687Z,9.43
2017-07-28T14:22:21.282Z,2.03
2017-07-28T14:24:48.724Z,8.80
2017-07-28T14:27:16.966Z,3.93
2017-07-28T14:29:44.576Z,1.87
2017-07-28T14:32:12.636Z,2.37
2017-07-28T14:34:40.079Z,2.27
2017-07-28T14:37:08.046Z,3.27
2017-07-28T14:39:36.233Z,2.70
2017-07-28T14:42:03.779Z,2.87
2017-07-28T14:44:31.475Z,1.50
2017-07-28T14:46:59.613Z,2.60
2017-07-28T14:49:27.063Z,3.70
2017-07-28T14:51:54.601Z,3.43
2017-07-28T14:54:22.048Z,4.17
2017-07-28T14:56:50.019Z,2.60
2017-07-28T14:59:17.484Z,6.07
2017-07-28T15:01:44.956Z,6.10
2017-07-28T15:04:12.504Z,3.50
2017-07-28T15:06:40.720Z,3.60
2017-07-28T15:09:08.173Z,4.30
2017-07-28T15:11:35.661Z,2.77
2017-07-28T15:14:03.168Z,3.20
2017-07-28T15:16:30.656Z,4.80
2017-07-28T15:18:58.129Z,18.63
2017-07-28T15:21:25.584Z,2.33
2017-07-28T15:23:53.048Z,3.00
2017-07-28T15:26:20.531Z,3.17
2017-07-28T15:28:48.529Z,5.03
2017-07-28T15:31:16.317Z,3.07
2017-07-28T15:33:43.827Z,2.37
2017-07-28T15:36:11.272Z,2.00
2017-07-28T15:38:38.776Z,5.70
2017-07-28T15:41:06.245Z,12.07
2017-07-28T15:43:33.891Z,2.57
2017-07-28T15:46:01.349Z,3.70
2017-07-28T15:48:29.292Z,2.30
2017-07-28T15:50:57.532Z,3.63
2017-07-28T15:53:24.978Z,5.20
2017-07-28T15:55:52.436Z,2.37
2017-07-28T15:58:19.900Z,4.07
2017-07-28T16:00:47.374Z,3.57
2017-07-28T16:03:14.828Z,12.73
2017-07-28T16:05:42.829Z,4.20
2017-07-28T16:08:10.297Z,4.77
2017-07-28T16:10:37.745Z,3.00
2017-07-28T16:13:05.309Z,4.43
2017-07-28T16:15:33.025Z,3.53
2017-07-28T16:18:00.630Z,8.90
2017-07-28T16:20:28.074Z,2.87
2017-07-28T16:22:55.525Z,2.20
2017-07-28T16:25:22.992Z,6.00
2017-07-28T16:27:50.432Z,4.57
2017-07-28T16:30:18.108Z,7.83
2017-07-28T16:32:45.856Z,3.33
2017-07-28T16:35:13.325Z,1.87
2017-07-28T16:37:40.781Z,8.17
2017-07-28T16:40:08.246Z,2.20
2017-07-28T16:42:35.693Z,2.50
2017-07-28T16:45:03.225Z,3.83
2017-07-28T16:47:30.693Z,2.07
2017-07-28T16:49:58.143Z,2.30
2017-07-28T16:52:25.600Z,4.13
2017-07-28T16:54:53.075Z,4.17
2017-07-28T16:57:20.522Z,4.87
2017-07-28T16:59:48.236Z,4.73
2017-07-28T17:02:15.701Z,2.60
2017-07-28T17:04:43.161Z,9.03
2017-07-28T17:07:10.643Z,2.13
2017-07-28T17:09:38.107Z,3.50
2017-07-28T17:12:05.545Z,3.23
2017-07-28T17:14:33.008Z,2.70
2017-07-28T17:17:01.168Z,2.57
2017-07-28T17:19:29.388Z,2.10
2017-07-28T17:21:56.841Z,3.20
2017-07-28T17:24:24.662Z,5.20
2017-07-28T17:26:52.101Z,2.23
2017-07-28T17:29:20.002Z,2.30
2017-07-28T17:31:47.468Z,2.60
2017-07-28T17:34:14.909Z,3.80
2017-07-28T17:36:42.587Z,6.40
2017-07-28T17:39:10.912Z,2.60
2017-07-28T17:41:38.369Z,3.50
2017-07-28T17:44:06.182Z,6.77
2017-07-28T17:46:33.626Z,5.40
2017-07-28T17:49:01.081Z,3.37
2017-07-28T17:51:28.545Z,2.47
2017-07-28T17:53:56.025Z,2.80
2017-07-28T17:56:23.496Z,7.53
2017-07-28T17:58:51.089Z,4.93
2017-07-28T18:01:18.542Z,2.60
2017-07-28T18:03:45.986Z,1.70
2017-07-28T18:06:13.457Z,2.63
2017-07-28T18:08:40.895Z,4.60
2017-07-28T18:11:08.354Z,2.53
2017-07-28T18:13:35.833Z,3.28
2017-07-28T18:16:03.288Z,2.33
2017-07-28T18:18:30.745Z,2.30
2017-07-28T18:20:58.212Z,3.73
2017-07-28T18:23:25.680Z,2.60
2017-07-28T18:25:53.159Z,2.37
2017-07-28T18:28:20.602Z,5.97
2017-07-28T18:30:48.557Z,2.80
2017-07-28T18:33:16.001Z,2.70
2017-07-28T18:35:43.469Z,3.10
2017-07-28T18:38:10.948Z,9.37
2017-07-28T18:40:38.389Z,3.00
2017-07-28T18:43:05.869Z,4.53
2017-07-28T18:45:33.321Z,3.30
2017-07-28T18:48:00.765Z,4.00
2017-07-28T18:50:28.228Z,5.30
2017-07-28T18:52:55.673Z,2.80
2017-07-28T18:55:23.188Z,6.67
2017-07-28T18:57:50.901Z,4.43
2017-07-28T19:00:18.359Z,6.37
2017-07-28T19:02:45.804Z,4.13
2017-07-28T19:05:13.268Z,5.27
2017-07-28T19:07:40.724Z,4.00
2017-07-28T19:10:08.181Z,2.90
2017-07-28T19:12:35.978Z,2.80
2017-07-28T19:15:03.421Z,2.67
2017-07-28T19:17:30.882Z,4.57
2017-07-28T19:19:58.349Z,8.90
2017-07-28T19:22:25.833Z,3.10
2017-07-28T19:24:53.280Z,4.73
2017-07-28T19:27:20.764Z,6.03
2017-07-28T19:29:48.208Z,12.97
2017-07-28T19:32:15.677Z,6.40
2017-07-28T19:34:43.122Z,4.20
2017-07-28T19:37:10.597Z,3.17
2017-07-28T19:39:38.044Z,3.97
2017-07-28T19:42:05.536Z,15.40
2017-07-28T19:44:32.985Z,4.93
2017-07-28T19:47:00.438Z,8.40
2017-07-28T19:49:28.173Z,3.67
2017-07-28T19:51:55.625Z,3.60
2017-07-28T19:54:23.072Z,3.30
2017-07-28T19:56:51.185Z,2.97
2017-07-28T19:59:18.631Z,2.97
2017-07-28T20:01:46.077Z,4.37
2017-07-28T20:04:13.545Z,5.67
2017-07-28T20:06:41.018Z,4.67
2017-07-28T20:09:08.544Z,5.60
2017-07-28T20:14:12.909Z,3.13
2017-07-28T20:16:40.373Z,8.10
2017-07-28T20:19:07.904Z,5.20
2017-07-28T20:21:35.353Z,3.77
2017-07-28T20:24:03.054Z,5.60
2017-07-28T20:26:30.504Z,5.30
2017-07-28T20:28:57.955Z,5.37
2017-07-28T20:31:25.751Z,4.60
2017-07-28T20:33:53.192Z,6.23
2017-07-28T20:36:20.644Z,5.17
2017-07-28T20:38:48.982Z,6.43
2017-07-28T20:41:16.439Z,4.73
2017-07-28T20:43:43.921Z,19.77
2017-07-28T20:46:11.376Z,31.53
2017-07-28T20:48:38.864Z,6.50
2017-07-28T20:51:06.350Z,16.20
2017-07-28T20:53:33.916Z,7.30
2017-07-28T20:56:01.406Z,4.53
2017-07-28T20:58:28.882Z,8.07
2017-07-28T21:00:56.354Z,12.40
2017-07-28T21:03:23.817Z,6.10
2017-07-28T21:05:51.290Z,5.00
2017-07-28T21:08:18.749Z,11.07
2017-07-28T21:10:46.227Z,10.03
2017-07-28T21:13:13.669Z,8.97
2017-07-28T21:15:41.153Z,8.23
2017-07-28T21:18:08.621Z,9.37
2017-07-28T21:20:36.077Z,9.43
2017-07-28T21:23:03.944Z,9.90
2017-07-28T21:25:31.395Z,6.13
2017-07-28T21:27:58.840Z,9.67
2017-07-28T21:30:26.326Z,12.60
2017-07-28T21:32:53.776Z,10.63
2017-07-28T21:35:21.245Z,6.10
2017-07-28T21:37:48.688Z,7.17
2017-07-28T21:40:16.141Z,7.37
2017-07-28T21:42:43.928Z,14.27
2017-07-28T21:45:11.385Z,6.57
2017-07-28T21:47:38.849Z,6.53
2017-07-28T21:50:06.703Z,9.20
2017-07-28T21:52:34.298Z,7.90
2017-07-28T21:55:01.954Z,6.77
2017-07-28T21:57:29.452Z,12.73
2017-07-28T21:59:56.901Z,9.97
2017-07-28T22:02:24.551Z,8.27
2017-07-28T22:04:52.042Z,9.13
2017-07-28T22:07:19.500Z,7.77
2017-07-28T22:09:46.996Z,8.67
2017-07-28T22:12:14.491Z,8.50
2017-07-28T22:14:41.968Z,8.27
2017-07-28T22:17:09.459Z,13.17
2017-07-28T22:19:37.376Z,12.33
2017-07-28T22:22:04.852Z,13.43
2017-07-28T22:24:32.302Z,9.53
2017-07-28T22:26:59.794Z,10.40
2017-07-28T22:29:27.277Z,8.10
2017-07-28T22:31:55.141Z,10.67
2017-07-28T22:34:22.589Z,11.47
2017-07-28T22:36:50.125Z,13.83
2017-07-28T22:39:17.603Z,10.70
2017-07-28T22:41:45.041Z,7.97
2017-07-28T22:44:12.520Z,7.50
2017-07-28T22:46:39.973Z,12.10
2017-07-28T22:49:09.041Z,7.83
2017-07-28T22:51:36.585Z,10.77
2017-07-28T22:54:04.576Z,9.27
2017-07-28T22:56:32.044Z,8.43
2017-07-28T22:58:59.497Z,11.70
2017-07-28T23:01:27.094Z,8.83
2017-07-28T23:03:54.541Z,22.73
2017-07-28T23:06:21.996Z,8.60
2017-07-28T23:08:49.477Z,8.00
2017-07-28T23:11:17.032Z,11.30
2017-07-28T23:13:44.525Z,13.73
2017-07-28T23:16:12.012Z,9.50
2017-07-28T23:18:39.485Z,19.17
2017-07-28T23:21:06.939Z,11.77
2017-07-28T23:23:34.407Z,12.23
2017-07-28T23:26:01.885Z,14.23
2017-07-28T23:28:29.621Z,10.90
2017-07-28T23:30:57.065Z,11.43
2017-07-28T23:33:24.517Z,10.80
2017-07-28T23:35:51.989Z,9.83
2017-07-28T23:38:19.504Z,12.40
2017-07-28T23:40:46.971Z,10.43
2017-07-28T23:43:14.433Z,10.07
2017-07-28T23:45:41.914Z,7.10
2017-07-28T23:48:09.362Z,9.87
2017-07-28T23:50:36.884Z,9.73
2017-07-28T23:53:04.370Z,8.30
2017-07-28T23:55:31.837Z,12.47
2017-07-28T23:57:59.847Z,12.97
